Gallion, Alabama
Current Conditions -  °F | °C
As of 11:55 AM on Thursday 29 Jan 2015 (Local Time) from KDYA Reporting Station
Scattered Clouds Scattered Clouds  
Wind Chill: 67°   Ceiling: Unl
Heat Index: 67°   Visibility: 10mi
Dew Point: 45°   Wind: 10mph
Humidity: 45%   Direction: 200°SSW
Pressure: 30.18"   Gusts: 18mph
Location:  32.5°N, 87.72°W
Report Text: KDYA 291755Z AUTO 20009G16KT 10SM SCT033 20/07 A3018 RMK AO2 T01960073 10196 20016
Loading
Personal Weather Stations






























Interactive Weather Map New forecast layout! Learn more

10-Day Weather Forecast

Advertisements
Track Severe Weather on mobile